sensor_id;sensor_type;location;lat;lon;timestamp;pressure;altitude;pressure_sealevel;temperature;humidity
21988;BME280;11158;53.404;-1.510;2022-10-13T00:01:18;100609.56;;;16.77;55.83
21988;BME280;11158;53.404;-1.510;2022-10-13T00:03:45;100614.66;;;16.92;55.79
21988;BME280;11158;53.404;-1.510;2022-10-13T00:06:13;100610.59;;;16.76;55.54
21988;BME280;11158;53.404;-1.510;2022-10-13T00:08:40;100610.22;;;16.72;55.51
21988;BME280;11158;53.404;-1.510;2022-10-13T00:11:16;100612.25;;;16.84;55.53
21988;BME280;11158;53.404;-1.510;2022-10-13T00:13:43;100621.31;;;16.89;54.76
21988;BME280;11158;53.404;-1.510;2022-10-13T00:16:11;100610.97;;;16.86;55.05
21988;BME280;11158;53.404;-1.510;2022-10-13T00:18:39;100617.25;;;16.80;54.77
21988;BME280;11158;53.404;-1.510;2022-10-13T00:21:10;100604.06;;;16.65;55.34
21988;BME280;11158;53.404;-1.510;2022-10-13T00:23:36;100609.69;;;16.57;55.84
21988;BME280;11158;53.404;-1.510;2022-10-13T00:26:04;100602.59;;;16.63;55.90
21988;BME280;11158;53.404;-1.510;2022-10-13T00:28:30;100604.25;;;16.64;55.79
21988;BME280;11158;53.404;-1.510;2022-10-13T00:30:56;100601.56;;;16.32;56.39
21988;BME280;11158;53.404;-1.510;2022-10-13T00:33:21;100594.59;;;15.79;57.73
21988;BME280;11158;53.404;-1.510;2022-10-13T00:35:48;100609.97;;;15.59;58.22
21988;BME280;11158;53.404;-1.510;2022-10-13T00:38:18;100605.69;;;15.38;59.32
21988;BME280;11158;53.404;-1.510;2022-10-13T00:40:46;100608.38;;;15.31;59.38
21988;BME280;11158;53.404;-1.510;2022-10-13T00:43:16;100606.56;;;14.85;60.08
21988;BME280;11158;53.404;-1.510;2022-10-13T00:45:42;100609.66;;;14.95;60.13
21988;BME280;11158;53.404;-1.510;2022-10-13T00:48:08;100603.88;;;14.72;60.98
21988;BME280;11158;53.404;-1.510;2022-10-13T00:50:40;100606.53;;;15.12;59.98
21988;BME280;11158;53.404;-1.510;2022-10-13T00:53:07;100606.34;;;15.13;59.13
21988;BME280;11158;53.404;-1.510;2022-10-13T00:55:35;100605.09;;;15.09;59.04
21988;BME280;11158;53.404;-1.510;2022-10-13T00:58:05;100612.16;;;14.97;59.77
21988;BME280;11158;53.404;-1.510;2022-10-13T01:00:33;100610.47;;;15.02;59.25
21988;BME280;11158;53.404;-1.510;2022-10-13T01:03:00;100612.59;;;15.00;59.05
21988;BME280;11158;53.404;-1.510;2022-10-13T01:05:26;100609.69;;;14.75;59.73
21988;BME280;11158;53.404;-1.510;2022-10-13T01:07:54;100615.06;;;14.75;59.76
21988;BME280;11158;53.404;-1.510;2022-10-13T01:19:03;100617.03;;;13.72;62.90
21988;BME280;11158;53.404;-1.510;2022-10-13T01:21:40;100616.09;;;13.99;62.07
21988;BME280;11158;53.404;-1.510;2022-10-13T01:27:18;100600.97;;;14.93;59.98
21988;BME280;11158;53.404;-1.510;2022-10-13T01:30:15;100609.06;;;14.66;59.61
21988;BME280;11158;53.404;-1.510;2022-10-13T01:38:10;100608.97;;;13.72;62.74
21988;BME280;11158;53.404;-1.510;2022-10-13T01:43:17;100612.78;;;13.21;64.09
21988;BME280;11158;53.404;-1.510;2022-10-13T01:45:56;100613.34;;;13.73;62.51
21988;BME280;11158;53.404;-1.510;2022-10-13T01:48:26;100618.81;;;14.06;60.89
21988;BME280;11158;53.404;-1.510;2022-10-13T01:50:54;100611.88;;;14.45;59.78
21988;BME280;11158;53.404;-1.510;2022-10-13T01:53:22;100611.25;;;14.50;58.98
21988;BME280;11158;53.404;-1.510;2022-10-13T01:55:53;100601.75;;;14.54;58.67
21988;BME280;11158;53.404;-1.510;2022-10-13T01:58:20;100611.25;;;14.43;58.35
21988;BME280;11158;53.404;-1.510;2022-10-13T02:03:36;100609.56;;;14.22;59.05
21988;BME280;11158;53.404;-1.510;2022-10-13T02:06:20;100606.16;;;13.87;59.01
21988;BME280;11158;53.404;-1.510;2022-10-13T02:08:58;100614.13;;;13.67;59.77
21988;BME280;11158;53.404;-1.510;2022-10-13T02:11:27;100614.91;;;13.60;60.15
21988;BME280;11158;53.404;-1.510;2022-10-13T02:16:24;100614.63;;;14.72;57.18
21988;BME280;11158;53.404;-1.510;2022-10-13T02:18:55;100608.22;;;14.93;56.10
21988;BME280;11158;53.404;-1.510;2022-10-13T02:21:22;100608.41;;;15.18;55.42
21988;BME280;11158;53.404;-1.510;2022-10-13T02:23:47;100601.94;;;15.32;54.93
21988;BME280;11158;53.404;-1.510;2022-10-13T02:26:13;100601.38;;;15.10;55.16
21988;BME280;11158;53.404;-1.510;2022-10-13T02:28:39;100614.84;;;14.70;56.08
21988;BME280;11158;53.404;-1.510;2022-10-13T02:31:07;100605.53;;;14.66;56.15
21988;BME280;11158;53.404;-1.510;2022-10-13T02:33:33;100610.88;;;14.46;56.52
21988;BME280;11158;53.404;-1.510;2022-10-13T02:35:58;100612.13;;;14.50;56.68
21988;BME280;11158;53.404;-1.510;2022-10-13T02:38:24;100606.31;;;14.46;56.43
21988;BME280;11158;53.404;-1.510;2022-10-13T02:40:50;100604.28;;;14.62;55.76
21988;BME280;11158;53.404;-1.510;2022-10-13T02:43:16;100605.72;;;14.91;54.87
21988;BME280;11158;53.404;-1.510;2022-10-13T02:45:41;100599.53;;;14.97;54.51
21988;BME280;11158;53.404;-1.510;2022-10-13T02:48:07;100599.72;;;15.02;54.19
21988;BME280;11158;53.404;-1.510;2022-10-13T02:50:33;100604.09;;;14.97;54.75
21988;BME280;11158;53.404;-1.510;2022-10-13T02:52:59;100604.72;;;14.85;54.93
21988;BME280;11158;53.404;-1.510;2022-10-13T02:55:24;100604.50;;;14.94;54.80
21988;BME280;11158;53.404;-1.510;2022-10-13T02:57:50;100601.78;;;15.14;54.38
21988;BME280;11158;53.404;-1.510;2022-10-13T03:00:16;100601.09;;;15.52;53.63
21988;BME280;11158;53.404;-1.510;2022-10-13T03:02:42;100602.06;;;15.77;52.92
21988;BME280;11158;53.404;-1.510;2022-10-13T03:05:08;100601.41;;;15.82;52.88
21988;BME280;11158;53.404;-1.510;2022-10-13T03:07:34;100607.84;;;15.81;52.66
21988;BME280;11158;53.404;-1.510;2022-10-13T03:10:00;100596.03;;;15.82;52.71
21988;BME280;11158;53.404;-1.510;2022-10-13T03:12:26;100597.91;;;15.68;53.31
21988;BME280;11158;53.404;-1.510;2022-10-13T03:14:52;100599.81;;;15.54;53.21
21988;BME280;11158;53.404;-1.510;2022-10-13T03:17:17;100601.69;;;15.54;53.38
21988;BME280;11158;53.404;-1.510;2022-10-13T03:19:43;100603.88;;;14.85;54.67
21988;BME280;11158;53.404;-1.510;2022-10-13T03:22:10;100602.63;;;14.61;55.68
21988;BME280;11158;53.404;-1.510;2022-10-13T03:24:39;100602.63;;;14.74;55.24
21988;BME280;11158;53.404;-1.510;2022-10-13T03:27:04;100589.97;;;15.28;54.13
21988;BME280;11158;53.404;-1.510;2022-10-13T03:29:30;100583.94;;;15.39;53.34
21988;BME280;11158;53.404;-1.510;2022-10-13T03:31:56;100590.00;;;14.55;55.55
21988;BME280;11158;53.404;-1.510;2022-10-13T03:34:22;100595.06;;;14.10;56.90
21988;BME280;11158;53.404;-1.510;2022-10-13T03:36:47;100592.53;;;13.88;57.90
21988;BME280;11158;53.404;-1.510;2022-10-13T03:39:13;100583.91;;;14.19;57.31
21988;BME280;11158;53.404;-1.510;2022-10-13T03:41:39;100577.59;;;14.80;55.57
21988;BME280;11158;53.404;-1.510;2022-10-13T03:44:05;100579.03;;;14.90;55.02
21988;BME280;11158;53.404;-1.510;2022-10-13T03:46:32;100576.13;;;14.98;55.01
21988;BME280;11158;53.404;-1.510;2022-10-13T03:48:58;100571.69;;;15.37;54.20
21988;BME280;11158;53.404;-1.510;2022-10-13T03:51:24;100569.78;;;15.50;53.79
21988;BME280;11158;53.404;-1.510;2022-10-13T03:53:51;100569.78;;;15.50;53.28
21988;BME280;11158;53.404;-1.510;2022-10-13T03:56:19;100577.59;;;15.79;52.85
21988;BME280;11158;53.404;-1.510;2022-10-13T03:58:45;100569.22;;;15.94;52.64
21988;BME280;11158;53.404;-1.510;2022-10-13T04:01:12;100578.31;;;15.41;53.51
21988;BME280;11158;53.404;-1.510;2022-10-13T04:03:40;100581.09;;;15.01;54.94
21988;BME280;11158;53.404;-1.510;2022-10-13T04:06:08;100577.78;;;14.65;55.88
21988;BME280;11158;53.404;-1.510;2022-10-13T04:08:35;100580.03;;;14.49;56.52
21988;BME280;11158;53.404;-1.510;2022-10-13T04:11:05;100590.97;;;14.27;57.93
21988;BME280;11158;53.404;-1.510;2022-10-13T04:13:31;100585.94;;;14.04;57.97
21988;BME280;11158;53.404;-1.510;2022-10-13T04:16:05;100592.22;;;13.70;58.58
21988;BME280;11158;53.404;-1.510;2022-10-13T04:18:32;100589.91;;;13.60;59.17
21988;BME280;11158;53.404;-1.510;2022-10-13T04:20:58;100591.69;;;13.88;58.21
21988;BME280;11158;53.404;-1.510;2022-10-13T04:23:24;100583.50;;;14.29;56.96
21988;BME280;11158;53.404;-1.510;2022-10-13T04:25:50;100575.91;;;14.93;55.41
21988;BME280;11158;53.404;-1.510;2022-10-13T04:28:15;100570.88;;;15.29;54.80
21988;BME280;11158;53.404;-1.510;2022-10-13T04:30:41;100576.44;;;15.41;54.43
21988;BME280;11158;53.404;-1.510;2022-10-13T04:33:07;100570.31;;;15.14;54.89
21988;BME280;11158;53.404;-1.510;2022-10-13T04:35:33;100575.31;;;14.84;56.12
21988;BME280;11158;53.404;-1.510;2022-10-13T04:37:58;100585.47;;;14.62;56.30
21988;BME280;11158;53.404;-1.510;2022-10-13T04:40:25;100581.53;;;14.58;57.25
21988;BME280;11158;53.404;-1.510;2022-10-13T04:42:51;100575.72;;;14.61;56.72
21988;BME280;11158;53.404;-1.510;2022-10-13T04:45:16;100573.03;;;14.87;56.03
21988;BME280;11158;53.404;-1.510;2022-10-13T04:47:43;100560.38;;;15.08;55.35
21988;BME280;11158;53.404;-1.510;2022-10-13T04:50:09;100570.72;;;15.18;54.87
21988;BME280;11158;53.404;-1.510;2022-10-13T04:52:35;100561.94;;;15.42;54.17
21988;BME280;11158;53.404;-1.510;2022-10-13T04:55:01;100566.53;;;15.42;54.21
21988;BME280;11158;53.404;-1.510;2022-10-13T04:57:28;100565.34;;;15.11;55.16
21988;BME280;11158;53.404;-1.510;2022-10-13T04:59:53;100564.94;;;15.07;54.96
21988;BME280;11158;53.404;-1.510;2022-10-13T05:02:19;100567.25;;;14.64;56.04
21988;BME280;11158;53.404;-1.510;2022-10-13T05:04:45;100575.84;;;14.13;57.67
21988;BME280;11158;53.404;-1.510;2022-10-13T05:07:10;100576.41;;;14.01;58.18
21988;BME280;11158;53.404;-1.510;2022-10-13T05:09:36;100570.56;;;13.78;58.37
21988;BME280;11158;53.404;-1.510;2022-10-13T05:12:02;100565.50;;;14.10;57.43
21988;BME280;11158;53.404;-1.510;2022-10-13T05:14:27;100564.44;;;14.04;57.30
21988;BME280;11158;53.404;-1.510;2022-10-13T05:16:55;100565.91;;;14.07;57.52
21988;BME280;11158;53.404;-1.510;2022-10-13T05:19:20;100559.34;;;14.42;56.57
21988;BME280;11158;53.404;-1.510;2022-10-13T05:21:47;100554.63;;;14.64;55.81
21988;BME280;11158;53.404;-1.510;2022-10-13T05:24:14;100559.16;;;14.77;55.04
21988;BME280;11158;53.404;-1.510;2022-10-13T05:26:41;100563.31;;;14.73;55.28
21988;BME280;11158;53.404;-1.510;2022-10-13T05:29:07;100565.16;;;14.99;54.73
21988;BME280;11158;53.404;-1.510;2022-10-13T05:31:34;100567.03;;;14.99;54.22
21988;BME280;11158;53.404;-1.510;2022-10-13T05:34:00;100558.75;;;14.94;54.12
21988;BME280;11158;53.404;-1.510;2022-10-13T05:36:33;100565.78;;;14.95;54.14
21988;BME280;11158;53.404;-1.510;2022-10-13T05:39:00;100568.22;;;15.16;53.46
21988;BME280;11158;53.404;-1.510;2022-10-13T05:41:27;100571.53;;;15.12;53.95
21988;BME280;11158;53.404;-1.510;2022-10-13T05:43:56;100582.34;;;14.98;54.56
21988;BME280;11158;53.404;-1.510;2022-10-13T05:46:23;100582.34;;;14.92;54.90
21988;BME280;11158;53.404;-1.510;2022-10-13T05:48:50;100580.69;;;14.77;55.14
21988;BME280;11158;53.404;-1.510;2022-10-13T05:51:19;100587.94;;;14.70;55.49
21988;BME280;11158;53.404;-1.510;2022-10-13T05:53:49;100592.22;;;14.31;56.06
21988;BME280;11158;53.404;-1.510;2022-10-13T05:56:20;100596.75;;;14.24;56.06
21988;BME280;11158;53.404;-1.510;2022-10-13T05:58:50;100605.47;;;14.33;55.83
21988;BME280;11158;53.404;-1.510;2022-10-13T06:01:21;100592.81;;;14.27;55.54
21988;BME280;11158;53.404;-1.510;2022-10-13T06:03:49;100594.28;;;14.22;55.83
21988;BME280;11158;53.404;-1.510;2022-10-13T06:06:17;100586.19;;;14.09;55.80
21988;BME280;11158;53.404;-1.510;2022-10-13T06:08:43;100585.38;;;12.97;58.86
21988;BME280;11158;53.404;-1.510;2022-10-13T06:11:09;100599.84;;;12.75;59.71
21988;BME280;11158;53.404;-1.510;2022-10-13T06:13:35;100591.50;;;13.13;58.18
21988;BME280;11158;53.404;-1.510;2022-10-13T06:16:00;100599.19;;;13.23;57.76
21988;BME280;11158;53.404;-1.510;2022-10-13T06:18:27;100603.97;;;13.27;57.34
21988;BME280;11158;53.404;-1.510;2022-10-13T06:20:52;100601.41;;;13.19;57.63
21988;BME280;11158;53.404;-1.510;2022-10-13T06:23:18;100604.03;;;13.06;57.57
21988;BME280;11158;53.404;-1.510;2022-10-13T06:25:51;100612.31;;;12.61;58.40
21988;BME280;11158;53.404;-1.510;2022-10-13T06:28:18;100610.94;;;12.65;58.57
21988;BME280;11158;53.404;-1.510;2022-10-13T06:30:48;100608.69;;;12.26;59.16
21988;BME280;11158;53.404;-1.510;2022-10-13T06:33:19;100606.38;;;11.71;60.24
21988;BME280;11158;53.404;-1.510;2022-10-13T06:35:45;100599.38;;;11.56;60.39
21988;BME280;11158;53.404;-1.510;2022-10-13T06:38:11;100599.38;;;11.70;60.01
21988;BME280;11158;53.404;-1.510;2022-10-13T06:40:37;100595.84;;;11.85;59.30
21988;BME280;11158;53.404;-1.510;2022-10-13T06:43:03;100591.34;;;11.70;59.16
21988;BME280;11158;53.404;-1.510;2022-10-13T06:45:29;100597.91;;;11.23;61.20
21988;BME280;11158;53.404;-1.510;2022-10-13T06:47:54;100588.78;;;11.32;60.25
21988;BME280;11158;53.404;-1.510;2022-10-13T06:50:23;100597.34;;;11.58;60.10
21988;BME280;11158;53.404;-1.510;2022-10-13T06:52:49;100588.19;;;11.67;59.12
21988;BME280;11158;53.404;-1.510;2022-10-13T06:55:18;100584.63;;;11.30;59.92
21988;BME280;11158;53.404;-1.510;2022-10-13T06:57:44;100584.13;;;11.56;59.24
21988;BME280;11158;53.404;-1.510;2022-10-13T07:00:10;100581.94;;;11.30;59.22
21988;BME280;11158;53.404;-1.510;2022-10-13T07:02:37;100583.00;;;11.80;58.06
21988;BME280;11158;53.404;-1.510;2022-10-13T07:05:03;100582.44;;;11.85;57.04
21988;BME280;11158;53.404;-1.510;2022-10-13T07:07:28;100579.91;;;11.62;57.15
21988;BME280;11158;53.404;-1.510;2022-10-13T07:09:54;100568.47;;;11.38;57.63
21988;BME280;11158;53.404;-1.510;2022-10-13T07:12:20;100578.81;;;11.11;58.77
21988;BME280;11158;53.404;-1.510;2022-10-13T07:14:46;100574.09;;;11.43;58.02
21988;BME280;11158;53.404;-1.510;2022-10-13T07:17:13;100578.53;;;11.36;58.33
21988;BME280;11158;53.404;-1.510;2022-10-13T07:19:39;100585.13;;;11.85;56.94
21988;BME280;11158;53.404;-1.510;2022-10-13T07:22:04;100578.09;;;12.20;56.39
21988;BME280;11158;53.404;-1.510;2022-10-13T07:24:30;100593.63;;;12.25;55.74
21988;BME280;11158;53.404;-1.510;2022-10-13T07:26:56;100587.44;;;12.03;55.89
21988;BME280;11158;53.404;-1.510;2022-10-13T07:29:22;100586.50;;;11.95;56.25
21988;BME280;11158;53.404;-1.510;2022-10-13T07:31:48;100589.97;;;12.11;55.56
21988;BME280;11158;53.404;-1.510;2022-10-13T07:34:14;100582.72;;;12.26;55.13
21988;BME280;11158;53.404;-1.510;2022-10-13T07:36:40;100591.44;;;11.62;56.15
21988;BME280;11158;53.404;-1.510;2022-10-13T07:39:07;100599.81;;;11.74;56.40
21988;BME280;11158;53.404;-1.510;2022-10-13T07:41:33;100602.19;;;11.84;55.98
21988;BME280;11158;53.404;-1.510;2022-10-13T07:43:58;100596.16;;;12.11;55.40
21988;BME280;11158;53.404;-1.510;2022-10-13T07:46:24;100597.41;;;12.30;54.82
21988;BME280;11158;53.404;-1.510;2022-10-13T07:48:52;100588.22;;;12.40;54.96
21988;BME280;11158;53.404;-1.510;2022-10-13T07:51:18;100596.94;;;12.27;54.59
21988;BME280;11158;53.404;-1.510;2022-10-13T07:53:44;100598.91;;;11.67;56.35
21988;BME280;11158;53.404;-1.510;2022-10-13T07:56:12;100599.88;;;11.95;55.95
21988;BME280;11158;53.404;-1.510;2022-10-13T07:58:40;100596.63;;;11.64;56.41
21988;BME280;11158;53.404;-1.510;2022-10-13T08:01:06;100590.06;;;11.51;56.79
21988;BME280;11158;53.404;-1.510;2022-10-13T08:03:33;100593.81;;;11.87;56.19
21988;BME280;11158;53.404;-1.510;2022-10-13T08:06:00;100598.91;;;12.18;54.88
21988;BME280;11158;53.404;-1.510;2022-10-13T08:08:26;100603.34;;;11.89;55.57
21988;BME280;11158;53.404;-1.510;2022-10-13T08:10:52;100581.56;;;11.63;56.29
21988;BME280;11158;53.404;-1.510;2022-10-13T08:13:18;100581.50;;;12.07;55.31
21988;BME280;11158;53.404;-1.510;2022-10-13T08:15:45;100573.06;;;12.53;54.11
21988;BME280;11158;53.404;-1.510;2022-10-13T08:18:12;100575.09;;;12.73;53.63
21988;BME280;11158;53.404;-1.510;2022-10-13T08:20:40;100575.97;;;12.80;53.26
21988;BME280;11158;53.404;-1.510;2022-10-13T08:23:06;100573.78;;;12.90;52.55
21988;BME280;11158;53.404;-1.510;2022-10-13T08:25:39;100580.25;;;13.31;51.79
21988;BME280;11158;53.404;-1.510;2022-10-13T08:28:08;100575.06;;;13.64;50.38
21988;BME280;11158;53.404;-1.510;2022-10-13T08:30:40;100576.66;;;14.00;49.62
21988;BME280;11158;53.404;-1.510;2022-10-13T08:33:06;100587.03;;;14.23;49.08
21988;BME280;11158;53.404;-1.510;2022-10-13T08:35:31;100582.31;;;14.52;48.24
21988;BME280;11158;53.404;-1.510;2022-10-13T08:37:57;100573.19;;;14.39;48.13
21988;BME280;11158;53.404;-1.510;2022-10-13T08:40:23;100584.75;;;14.33;48.00
21988;BME280;11158;53.404;-1.510;2022-10-13T08:42:49;100579.25;;;14.75;47.23
21988;BME280;11158;53.404;-1.510;2022-10-13T08:45:24;100578.81;;;15.04;46.89
21988;BME280;11158;53.404;-1.510;2022-10-13T08:47:58;100580.19;;;15.34;46.20
21988;BME280;11158;53.404;-1.510;2022-10-13T08:50:34;100570.72;;;15.18;46.19
21988;BME280;11158;53.404;-1.510;2022-10-13T08:53:10;100573.72;;;15.48;45.91
21988;BME280;11158;53.404;-1.510;2022-10-13T08:55:47;100576.56;;;15.66;45.85
21988;BME280;11158;53.404;-1.510;2022-10-13T08:58:21;100578.63;;;15.78;46.11
21988;BME280;11158;53.404;-1.510;2022-10-13T09:00:47;100576.97;;;15.77;46.15
21988;BME280;11158;53.404;-1.510;2022-10-13T09:03:21;100579.34;;;15.46;47.94
21988;BME280;11158;53.404;-1.510;2022-10-13T09:05:58;100580.94;;;15.61;48.15
21988;BME280;11158;53.404;-1.510;2022-10-13T09:08:27;100574.28;;;15.77;47.70
21988;BME280;11158;53.404;-1.510;2022-10-13T09:10:56;100576.97;;;15.77;47.72
21988;BME280;11158;53.404;-1.510;2022-10-13T09:13:24;100578.06;;;15.62;47.22
21988;BME280;11158;53.404;-1.510;2022-10-13T09:15:51;100586.34;;;15.54;47.67
21988;BME280;11158;53.404;-1.510;2022-10-13T09:18:18;100595.84;;;15.77;47.34
21988;BME280;11158;53.404;-1.510;2022-10-13T09:21:08;100603.31;;;15.61;45.52
21988;BME280;11158;53.404;-1.510;2022-10-13T09:23:34;100598.41;;;15.45;45.00
21988;BME280;11158;53.404;-1.510;2022-10-13T09:26:06;100601.72;;;16.05;44.18
21988;BME280;11158;53.404;-1.510;2022-10-13T09:28:33;100606.97;;;16.32;43.09
21988;BME280;11158;53.404;-1.510;2022-10-13T09:31:11;100612.25;;;15.55;44.05
21988;BME280;11158;53.404;-1.510;2022-10-13T09:33:38;100610.72;;;15.86;43.64
21988;BME280;11158;53.404;-1.510;2022-10-13T09:36:08;100603.72;;;16.17;42.65
21988;BME280;11158;53.404;-1.510;2022-10-13T09:38:36;100614.50;;;15.78;43.52
21988;BME280;11158;53.404;-1.510;2022-10-13T09:46:03;100595.00;;;15.83;42.84
21988;BME280;11158;53.404;-1.510;2022-10-13T09:48:36;100597.97;;;16.13;42.14
21988;BME280;11158;53.404;-1.510;2022-10-13T09:51:03;100593.50;;;16.25;41.88
21988;BME280;11158;53.404;-1.510;2022-10-13T09:53:39;100580.50;;;16.79;41.01
21988;BME280;11158;53.404;-1.510;2022-10-13T09:56:35;100585.50;;;17.01;41.05
21988;BME280;11158;53.404;-1.510;2022-10-13T09:59:15;100582.97;;;16.81;40.26
21988;BME280;11158;53.404;-1.510;2022-10-13T10:01:48;100582.44;;;16.40;41.48
21988;BME280;11158;53.404;-1.510;2022-10-13T10:04:21;100587.72;;;15.05;41.52
21988;BME280;11158;53.404;-1.510;2022-10-13T10:06:48;100575.25;;;15.24;42.10
21988;BME280;11158;53.404;-1.510;2022-10-13T10:09:18;100574.13;;;15.58;42.26
21988;BME280;11158;53.404;-1.510;2022-10-13T10:11:49;100569.75;;;15.70;42.17
21988;BME280;11158;53.404;-1.510;2022-10-13T10:14:28;100564.47;;;16.27;41.70
21988;BME280;11158;53.404;-1.510;2022-10-13T10:22:48;100572.75;;;16.26;42.38
21988;BME280;11158;53.404;-1.510;2022-10-13T10:25:25;100578.78;;;16.85;40.93
21988;BME280;11158;53.404;-1.510;2022-10-13T10:36:11;100574.66;;;16.50;41.51
21988;BME280;11158;53.404;-1.510;2022-10-13T10:38:49;100570.78;;;16.96;40.86
21988;BME280;11158;53.404;-1.510;2022-10-13T10:44:08;100568.25;;;16.20;40.86
21988;BME280;11158;53.404;-1.510;2022-10-13T10:46:39;100559.41;;;16.38;40.81
21988;BME280;11158;53.404;-1.510;2022-10-13T10:49:14;100561.72;;;16.02;41.08
21988;BME280;11158;53.404;-1.510;2022-10-13T10:51:43;100562.97;;;16.00;41.22
21988;BME280;11158;53.404;-1.510;2022-10-13T11:00:10;100559.25;;;16.58;39.14
21988;BME280;11158;53.404;-1.510;2022-10-13T11:08:38;100554.91;;;17.07;38.67
21988;BME280;11158;53.404;-1.510;2022-10-13T11:13:51;100539.47;;;17.32;37.55
21988;BME280;11158;53.404;-1.510;2022-10-13T11:16:34;100538.03;;;17.30;37.96
21988;BME280;11158;53.404;-1.510;2022-10-13T11:25:02;100517.19;;;16.75;38.69
21988;BME280;11158;53.404;-1.510;2022-10-13T11:29:58;100512.50;;;17.44;37.56
21988;BME280;11158;53.404;-1.510;2022-10-13T11:46:00;100493.63;;;16.13;38.91
21988;BME280;11158;53.404;-1.510;2022-10-13T11:48:46;100490.91;;;15.82;39.46
21988;BME280;11158;53.404;-1.510;2022-10-13T11:51:40;100482.75;;;17.14;37.52
21988;BME280;11158;53.404;-1.510;2022-10-13T11:57:24;100487.00;;;17.22;38.69
21988;BME280;11158;53.404;-1.510;2022-10-13T11:59:52;100482.41;;;17.41;37.96
21988;BME280;11158;53.404;-1.510;2022-10-13T12:02:21;100479.31;;;17.55;37.46
21988;BME280;11158;53.404;-1.510;2022-10-13T12:07:38;100477.78;;;18.20;36.66
21988;BME280;11158;53.404;-1.510;2022-10-13T12:10:07;100478.38;;;17.31;37.19
21988;BME280;11158;53.404;-1.510;2022-10-13T12:12:45;100486.97;;;17.58;37.20
21988;BME280;11158;53.404;-1.510;2022-10-13T12:15:29;100475.34;;;18.42;35.96
21988;BME280;11158;53.404;-1.510;2022-10-13T12:17:56;100471.44;;;18.38;36.53
21988;BME280;11158;53.404;-1.510;2022-10-13T12:20:25;100471.44;;;18.38;36.50
21988;BME280;11158;53.404;-1.510;2022-10-13T12:22:52;100474.59;;;18.23;37.35
21988;BME280;11158;53.404;-1.510;2022-10-13T12:25:25;100472.63;;;18.42;36.19
21988;BME280;11158;53.404;-1.510;2022-10-13T12:27:55;100478.28;;;17.68;37.05
21988;BME280;11158;53.404;-1.510;2022-10-13T12:30:31;100476.06;;;17.65;37.03
21988;BME280;11158;53.404;-1.510;2022-10-13T12:33:03;100464.25;;;18.43;35.75
21988;BME280;11158;53.404;-1.510;2022-10-13T12:35:39;100459.00;;;18.49;35.84
21988;BME280;11158;53.404;-1.510;2022-10-13T12:38:07;100463.44;;;18.19;35.93
21988;BME280;11158;53.404;-1.510;2022-10-13T12:40:38;100449.78;;;18.61;35.22
21988;BME280;11158;53.404;-1.510;2022-10-13T12:43:04;100453.09;;;18.99;34.76
21988;BME280;11158;53.404;-1.510;2022-10-13T12:45:33;100456.38;;;19.13;34.91
21988;BME280;11158;53.404;-1.510;2022-10-13T12:47:59;100449.94;;;19.31;34.84
21988;BME280;11158;53.404;-1.510;2022-10-13T12:53:16;100437.47;;;20.21;33.31
21988;BME280;11158;53.404;-1.510;2022-10-13T12:55:56;100436.97;;;19.61;34.23
21988;BME280;11158;53.404;-1.510;2022-10-13T12:58:32;100443.09;;;19.69;34.83
21988;BME280;11158;53.404;-1.510;2022-10-13T13:01:04;100427.72;;;19.45;34.85
21988;BME280;11158;53.404;-1.510;2022-10-13T13:03:31;100423.53;;;19.83;35.04
21988;BME280;11158;53.404;-1.510;2022-10-13T13:06:30;100411.25;;;20.09;34.41
21988;BME280;11158;53.404;-1.510;2022-10-13T13:09:17;100416.09;;;19.62;34.81
21988;BME280;11158;53.404;-1.510;2022-10-13T13:11:44;100407.59;;;20.04;34.37
21988;BME280;11158;53.404;-1.510;2022-10-13T13:14:39;100415.75;;;19.70;35.12
21988;BME280;11158;53.404;-1.510;2022-10-13T13:19:50;100391.25;;;19.99;35.49
21988;BME280;11158;53.404;-1.510;2022-10-13T13:22:16;100381.06;;;19.43;35.41
21988;BME280;11158;53.404;-1.510;2022-10-13T13:24:43;100377.91;;;19.35;35.72
21988;BME280;11158;53.404;-1.510;2022-10-13T13:27:17;100376.72;;;19.42;35.14
21988;BME280;11158;53.404;-1.510;2022-10-13T13:29:44;100375.19;;;19.63;35.69
21988;BME280;11158;53.404;-1.510;2022-10-13T13:32:14;100370.72;;;20.03;35.26
21988;BME280;11158;53.404;-1.510;2022-10-13T13:34:41;100367.75;;;19.42;35.76
21988;BME280;11158;53.404;-1.510;2022-10-13T13:37:29;100364.09;;;18.91;36.47
21988;BME280;11158;53.404;-1.510;2022-10-13T13:39:57;100358.00;;;19.12;36.50
21988;BME280;11158;53.404;-1.510;2022-10-13T13:42:24;100350.84;;;18.42;36.64
21988;BME280;11158;53.404;-1.510;2022-10-13T13:44:50;100347.81;;;17.91;38.38
21988;BME280;11158;53.404;-1.510;2022-10-13T13:47:21;100355.00;;;18.33;37.61
21988;BME280;11158;53.404;-1.510;2022-10-13T13:49:49;100354.59;;;19.05;36.64
21988;BME280;11158;53.404;-1.510;2022-10-13T13:52:16;100341.19;;;18.98;37.00
21988;BME280;11158;53.404;-1.510;2022-10-13T13:54:42;100335.63;;;19.05;36.51
21988;BME280;11158;53.404;-1.510;2022-10-13T13:57:10;100333.13;;;18.87;36.90
21988;BME280;11158;53.404;-1.510;2022-10-13T13:59:36;100347.28;;;18.77;36.81
21988;BME280;11158;53.404;-1.510;2022-10-13T14:02:03;100354.47;;;18.83;37.26
21988;BME280;11158;53.404;-1.510;2022-10-13T14:04:29;100338.25;;;19.00;36.84
21988;BME280;11158;53.404;-1.510;2022-10-13T14:06:54;100342.97;;;19.04;36.45
21988;BME280;11158;53.404;-1.510;2022-10-13T14:09:20;100346.47;;;19.05;36.70
21988;BME280;11158;53.404;-1.510;2022-10-13T14:11:46;100341.88;;;19.34;36.28
21988;BME280;11158;53.404;-1.510;2022-10-13T14:14:12;100354.09;;;19.20;36.36
21988;BME280;11158;53.404;-1.510;2022-10-13T14:16:38;100358.44;;;19.21;35.82
21988;BME280;11158;53.404;-1.510;2022-10-13T14:19:06;100357.94;;;18.95;36.22
21988;BME280;11158;53.404;-1.510;2022-10-13T14:21:32;100349.41;;;18.63;36.86
21988;BME280;11158;53.404;-1.510;2022-10-13T14:23:58;100349.28;;;18.70;37.19